Terminal Aerodrome Forecast
Issued by NWS

Home | Current Version | Previous Version | Text Only | Print | Product List | Glossary On
Versions: 1 2 3 4 5 6 7 8 9 10 11 12 13
000
FTUS45 KPSR 021100
TAFBLH
TAF
KBLH 021121Z 0212/0312 24006KT P6SM SKC
     FM022100 18010KT P6SM SKC
     FM030100 22010KT P6SM SKC
     FM030800 18004KT P6SM SKC=

USA.gov is the U.S. government's official web portal to all federal, state and local government web resources and services.